Terminal Aerodrome Forecast
Issued by NWS Wilmington, OH

Current Version | Previous Version | Text Only | Print | Product List | Glossary Off
Versions: 1 2 3 4 5 6 7 8 9 10 11 12 13 14 15 16

000
FTUS41 KILN 222300
TAFDAY
TAF
KDAY 222331Z 2300/2324 32017G25KT P6SM BKN250
     FM230100 32012KT P6SM FEW250
     FM230600 33008KT P6SM SKC
     FM231600 35009KT P6SM FEW040
     FM232300 02005KT P6SM SCT250=

USA.gov is the U.S. government's official web portal to all federal, state and local government web resources and services.